sensor_id;sensor_type;location;lat;lon;timestamp;P1;durP1;ratioP1;P2;durP2;ratioP2
43580;SDS011;29175;51.030;4.606;2023-05-07T00:02:25;15.23;;;6.47;;
43580;SDS011;29175;51.030;4.606;2023-05-07T00:04:51;9.80;;;5.68;;
43580;SDS011;29175;51.030;4.606;2023-05-07T00:07:17;16.42;;;5.68;;
43580;SDS011;29175;51.030;4.606;2023-05-07T00:09:43;13.10;;;5.82;;
43580;SDS011;29175;51.030;4.606;2023-05-07T00:12:09;14.25;;;5.82;;
43580;SDS011;29175;51.030;4.606;2023-05-07T00:14:35;11.20;;;5.97;;
43580;SDS011;29175;51.030;4.606;2023-05-07T00:17:01;15.45;;;5.90;;
43580;SDS011;29175;51.030;4.606;2023-05-07T00:19:27;12.32;;;5.25;;
43580;SDS011;29175;51.030;4.606;2023-05-07T00:21:53;18.10;;;7.20;;
43580;SDS011;29175;51.030;4.606;2023-05-07T00:24:19;17.73;;;7.80;;
43580;SDS011;29175;51.030;4.606;2023-05-07T00:26:45;19.42;;;7.07;;
43580;SDS011;29175;51.030;4.606;2023-05-07T00:29:11;22.35;;;7.40;;
43580;SDS011;29175;51.030;4.606;2023-05-07T00:31:36;14.30;;;6.82;;
43580;SDS011;29175;51.030;4.606;2023-05-07T00:34:02;13.45;;;6.13;;
43580;SDS011;29175;51.030;4.606;2023-05-07T00:36:28;15.00;;;6.53;;
43580;SDS011;29175;51.030;4.606;2023-05-07T00:38:56;13.88;;;7.75;;
43580;SDS011;29175;51.030;4.606;2023-05-07T00:41:24;23.67;;;9.43;;
43580;SDS011;29175;51.030;4.606;2023-05-07T00:43:50;31.02;;;14.25;;
43580;SDS011;29175;51.030;4.606;2023-05-07T00:46:16;36.63;;;16.40;;
43580;SDS011;29175;51.030;4.606;2023-05-07T00:48:42;37.35;;;16.65;;
43580;SDS011;29175;51.030;4.606;2023-05-07T00:51:09;20.73;;;9.57;;
43580;SDS011;29175;51.030;4.606;2023-05-07T00:53:36;14.73;;;7.18;;
43580;SDS011;29175;51.030;4.606;2023-05-07T00:56:03;16.73;;;7.53;;
43580;SDS011;29175;51.030;4.606;2023-05-07T00:58:29;17.65;;;7.40;;
43580;SDS011;29175;51.030;4.606;2023-05-07T01:00:56;16.67;;;7.60;;
43580;SDS011;29175;51.030;4.606;2023-05-07T01:03:21;13.80;;;6.55;;
43580;SDS011;29175;51.030;4.606;2023-05-07T01:05:47;11.77;;;6.60;;
43580;SDS011;29175;51.030;4.606;2023-05-07T01:08:15;12.50;;;7.55;;
43580;SDS011;29175;51.030;4.606;2023-05-07T01:10:42;21.15;;;7.28;;
43580;SDS011;29175;51.030;4.606;2023-05-07T01:13:09;12.88;;;6.22;;
43580;SDS011;29175;51.030;4.606;2023-05-07T01:15:36;16.42;;;7.43;;
43580;SDS011;29175;51.030;4.606;2023-05-07T01:18:02;13.38;;;7.00;;
43580;SDS011;29175;51.030;4.606;2023-05-07T01:20:28;16.08;;;7.70;;
43580;SDS011;29175;51.030;4.606;2023-05-07T01:22:55;60.50;;;27.40;;
43580;SDS011;29175;51.030;4.606;2023-05-07T01:25:22;35.17;;;18.67;;
43580;SDS011;29175;51.030;4.606;2023-05-07T01:27:49;17.73;;;7.43;;
43580;SDS011;29175;51.030;4.606;2023-05-07T01:30:15;15.23;;;7.53;;
43580;SDS011;29175;51.030;4.606;2023-05-07T01:32:43;16.55;;;8.00;;
43580;SDS011;29175;51.030;4.606;2023-05-07T01:35:19;16.27;;;6.93;;
43580;SDS011;29175;51.030;4.606;2023-05-07T01:37:47;18.65;;;7.55;;
43580;SDS011;29175;51.030;4.606;2023-05-07T01:40:14;13.35;;;7.72;;
43580;SDS011;29175;51.030;4.606;2023-05-07T01:42:41;17.13;;;8.10;;
43580;SDS011;29175;51.030;4.606;2023-05-07T01:45:08;14.75;;;7.28;;
43580;SDS011;29175;51.030;4.606;2023-05-07T01:47:36;23.17;;;8.13;;
43580;SDS011;29175;51.030;4.606;2023-05-07T01:50:03;18.48;;;7.05;;
43580;SDS011;29175;51.030;4.606;2023-05-07T01:52:33;14.95;;;7.75;;
43580;SDS011;29175;51.030;4.606;2023-05-07T01:55:00;16.00;;;7.05;;
43580;SDS011;29175;51.030;4.606;2023-05-07T01:57:25;16.75;;;7.57;;
43580;SDS011;29175;51.030;4.606;2023-05-07T01:59:51;18.00;;;7.32;;
43580;SDS011;29175;51.030;4.606;2023-05-07T02:02:17;16.85;;;7.88;;
43580;SDS011;29175;51.030;4.606;2023-05-07T02:04:43;26.02;;;11.13;;
43580;SDS011;29175;51.030;4.606;2023-05-07T02:07:09;14.25;;;7.18;;
43580;SDS011;29175;51.030;4.606;2023-05-07T02:09:35;17.15;;;7.88;;
43580;SDS011;29175;51.030;4.606;2023-05-07T02:12:01;20.80;;;9.88;;
43580;SDS011;29175;51.030;4.606;2023-05-07T02:14:27;19.80;;;9.43;;
43580;SDS011;29175;51.030;4.606;2023-05-07T02:16:56;22.27;;;8.90;;
43580;SDS011;29175;51.030;4.606;2023-05-07T02:19:25;23.95;;;9.48;;
43580;SDS011;29175;51.030;4.606;2023-05-07T02:21:54;17.65;;;8.60;;
43580;SDS011;29175;51.030;4.606;2023-05-07T02:24:20;18.48;;;8.85;;
43580;SDS011;29175;51.030;4.606;2023-05-07T02:26:46;16.95;;;7.68;;
43580;SDS011;29175;51.030;4.606;2023-05-07T02:29:12;14.93;;;6.25;;
43580;SDS011;29175;51.030;4.606;2023-05-07T02:31:38;15.70;;;6.97;;
43580;SDS011;29175;51.030;4.606;2023-05-07T02:34:04;16.35;;;7.20;;
43580;SDS011;29175;51.030;4.606;2023-05-07T02:36:29;15.63;;;6.95;;
43580;SDS011;29175;51.030;4.606;2023-05-07T02:38:55;13.90;;;7.22;;
43580;SDS011;29175;51.030;4.606;2023-05-07T02:41:21;23.52;;;8.75;;
43580;SDS011;29175;51.030;4.606;2023-05-07T02:43:47;16.58;;;9.70;;
43580;SDS011;29175;51.030;4.606;2023-05-07T02:46:13;16.88;;;9.13;;
43580;SDS011;29175;51.030;4.606;2023-05-07T02:48:38;21.52;;;8.35;;
43580;SDS011;29175;51.030;4.606;2023-05-07T02:51:04;24.60;;;8.68;;
43580;SDS011;29175;51.030;4.606;2023-05-07T02:53:30;18.52;;;8.70;;
43580;SDS011;29175;51.030;4.606;2023-05-07T02:55:57;18.67;;;8.65;;
43580;SDS011;29175;51.030;4.606;2023-05-07T02:58:25;19.05;;;8.52;;
43580;SDS011;29175;51.030;4.606;2023-05-07T03:00:51;18.90;;;8.10;;
43580;SDS011;29175;51.030;4.606;2023-05-07T03:03:19;19.92;;;9.00;;
43580;SDS011;29175;51.030;4.606;2023-05-07T03:05:45;22.02;;;8.40;;
43580;SDS011;29175;51.030;4.606;2023-05-07T03:08:11;22.77;;;9.52;;
43580;SDS011;29175;51.030;4.606;2023-05-07T03:10:37;23.30;;;9.95;;
43580;SDS011;29175;51.030;4.606;2023-05-07T03:13:03;19.60;;;9.20;;
43580;SDS011;29175;51.030;4.606;2023-05-07T03:15:29;16.83;;;8.80;;
43580;SDS011;29175;51.030;4.606;2023-05-07T03:17:55;21.73;;;10.02;;
43580;SDS011;29175;51.030;4.606;2023-05-07T03:20:21;22.50;;;10.60;;
43580;SDS011;29175;51.030;4.606;2023-05-07T03:22:47;24.23;;;11.45;;
43580;SDS011;29175;51.030;4.606;2023-05-07T03:25:13;21.67;;;11.30;;
43580;SDS011;29175;51.030;4.606;2023-05-07T03:27:40;19.23;;;10.82;;
43580;SDS011;29175;51.030;4.606;2023-05-07T03:30:07;24.08;;;11.10;;
43580;SDS011;29175;51.030;4.606;2023-05-07T03:32:33;21.20;;;10.50;;
43580;SDS011;29175;51.030;4.606;2023-05-07T03:35:00;24.00;;;11.07;;
43580;SDS011;29175;51.030;4.606;2023-05-07T03:37:26;23.40;;;11.40;;
43580;SDS011;29175;51.030;4.606;2023-05-07T03:39:52;20.63;;;11.38;;
43580;SDS011;29175;51.030;4.606;2023-05-07T03:42:18;22.30;;;10.75;;
43580;SDS011;29175;51.030;4.606;2023-05-07T03:44:44;25.63;;;11.68;;
43580;SDS011;29175;51.030;4.606;2023-05-07T03:47:10;26.88;;;11.95;;
43580;SDS011;29175;51.030;4.606;2023-05-07T03:49:44;28.85;;;12.50;;
43580;SDS011;29175;51.030;4.606;2023-05-07T03:52:20;19.15;;;11.32;;
43580;SDS011;29175;51.030;4.606;2023-05-07T03:54:49;21.33;;;10.23;;
43580;SDS011;29175;51.030;4.606;2023-05-07T03:57:15;22.00;;;11.88;;
43580;SDS011;29175;51.030;4.606;2023-05-07T03:59:41;25.50;;;11.15;;
43580;SDS011;29175;51.030;4.606;2023-05-07T04:02:08;21.50;;;11.75;;
43580;SDS011;29175;51.030;4.606;2023-05-07T04:04:34;20.58;;;11.55;;
43580;SDS011;29175;51.030;4.606;2023-05-07T04:07:00;21.23;;;11.05;;
43580;SDS011;29175;51.030;4.606;2023-05-07T04:09:26;28.52;;;12.32;;
43580;SDS011;29175;51.030;4.606;2023-05-07T04:11:52;27.15;;;12.32;;
43580;SDS011;29175;51.030;4.606;2023-05-07T04:14:18;21.98;;;12.43;;
43580;SDS011;29175;51.030;4.606;2023-05-07T04:16:44;23.13;;;12.63;;
43580;SDS011;29175;51.030;4.606;2023-05-07T04:19:09;27.70;;;12.30;;
43580;SDS011;29175;51.030;4.606;2023-05-07T04:21:35;22.10;;;12.50;;
43580;SDS011;29175;51.030;4.606;2023-05-07T04:24:02;24.13;;;11.00;;
43580;SDS011;29175;51.030;4.606;2023-05-07T04:26:28;24.65;;;11.50;;
43580;SDS011;29175;51.030;4.606;2023-05-07T04:28:57;23.43;;;11.67;;
43580;SDS011;29175;51.030;4.606;2023-05-07T04:31:24;27.85;;;12.07;;
43580;SDS011;29175;51.030;4.606;2023-05-07T04:33:50;27.55;;;12.88;;
43580;SDS011;29175;51.030;4.606;2023-05-07T04:36:16;25.77;;;12.02;;
43580;SDS011;29175;51.030;4.606;2023-05-07T04:38:42;27.65;;;12.32;;
43580;SDS011;29175;51.030;4.606;2023-05-07T04:41:08;26.08;;;12.38;;
43580;SDS011;29175;51.030;4.606;2023-05-07T04:43:34;27.92;;;13.25;;
43580;SDS011;29175;51.030;4.606;2023-05-07T04:46:00;23.40;;;13.27;;
43580;SDS011;29175;51.030;4.606;2023-05-07T04:48:26;25.65;;;12.50;;
43580;SDS011;29175;51.030;4.606;2023-05-07T04:50:53;21.95;;;11.98;;
43580;SDS011;29175;51.030;4.606;2023-05-07T04:53:19;24.98;;;12.75;;
43580;SDS011;29175;51.030;4.606;2023-05-07T04:55:46;23.60;;;12.13;;
43580;SDS011;29175;51.030;4.606;2023-05-07T04:58:14;21.20;;;11.70;;
43580;SDS011;29175;51.030;4.606;2023-05-07T05:00:43;25.60;;;12.57;;
43580;SDS011;29175;51.030;4.606;2023-05-07T05:03:09;24.30;;;12.50;;
43580;SDS011;29175;51.030;4.606;2023-05-07T05:05:34;21.05;;;10.98;;
43580;SDS011;29175;51.030;4.606;2023-05-07T05:08:00;21.13;;;11.63;;
43580;SDS011;29175;51.030;4.606;2023-05-07T05:10:26;25.50;;;11.80;;
43580;SDS011;29175;51.030;4.606;2023-05-07T05:12:52;22.90;;;10.98;;
43580;SDS011;29175;51.030;4.606;2023-05-07T05:15:18;17.20;;;10.68;;
43580;SDS011;29175;51.030;4.606;2023-05-07T05:17:44;20.15;;;10.27;;
43580;SDS011;29175;51.030;4.606;2023-05-07T05:20:10;19.90;;;9.88;;
43580;SDS011;29175;51.030;4.606;2023-05-07T05:22:36;22.02;;;10.57;;
43580;SDS011;29175;51.030;4.606;2023-05-07T05:25:02;21.15;;;9.88;;
43580;SDS011;29175;51.030;4.606;2023-05-07T05:27:28;16.17;;;9.30;;
43580;SDS011;29175;51.030;4.606;2023-05-07T05:29:54;20.42;;;10.38;;
43580;SDS011;29175;51.030;4.606;2023-05-07T05:32:20;19.83;;;9.88;;
43580;SDS011;29175;51.030;4.606;2023-05-07T05:34:46;19.83;;;10.07;;
43580;SDS011;29175;51.030;4.606;2023-05-07T05:37:12;19.60;;;10.32;;
43580;SDS011;29175;51.030;4.606;2023-05-07T05:39:39;21.10;;;9.95;;
43580;SDS011;29175;51.030;4.606;2023-05-07T05:42:06;21.50;;;10.80;;
43580;SDS011;29175;51.030;4.606;2023-05-07T05:44:32;24.65;;;10.35;;
43580;SDS011;29175;51.030;4.606;2023-05-07T05:46:57;18.55;;;10.23;;
43580;SDS011;29175;51.030;4.606;2023-05-07T05:49:24;20.55;;;10.55;;
43580;SDS011;29175;51.030;4.606;2023-05-07T05:51:50;21.20;;;11.20;;
43580;SDS011;29175;51.030;4.606;2023-05-07T05:54:16;22.98;;;11.57;;
43580;SDS011;29175;51.030;4.606;2023-05-07T05:56:42;24.42;;;11.90;;
43580;SDS011;29175;51.030;4.606;2023-05-07T05:59:08;21.45;;;11.02;;
43580;SDS011;29175;51.030;4.606;2023-05-07T06:01:34;18.60;;;10.38;;
43580;SDS011;29175;51.030;4.606;2023-05-07T06:03:59;24.45;;;11.93;;
43580;SDS011;29175;51.030;4.606;2023-05-07T06:06:25;20.40;;;10.23;;
43580;SDS011;29175;51.030;4.606;2023-05-07T06:08:51;19.33;;;11.15;;
43580;SDS011;29175;51.030;4.606;2023-05-07T06:11:17;19.15;;;10.32;;
43580;SDS011;29175;51.030;4.606;2023-05-07T06:13:43;17.52;;;10.73;;
43580;SDS011;29175;51.030;4.606;2023-05-07T06:16:08;22.23;;;11.77;;
43580;SDS011;29175;51.030;4.606;2023-05-07T06:18:34;20.38;;;11.40;;
43580;SDS011;29175;51.030;4.606;2023-05-07T06:21:01;18.75;;;11.13;;
43580;SDS011;29175;51.030;4.606;2023-05-07T06:23:27;21.40;;;11.55;;
43580;SDS011;29175;51.030;4.606;2023-05-07T06:25:53;22.40;;;11.55;;
43580;SDS011;29175;51.030;4.606;2023-05-07T06:28:19;25.10;;;12.38;;
43580;SDS011;29175;51.030;4.606;2023-05-07T06:30:45;22.55;;;11.85;;
43580;SDS011;29175;51.030;4.606;2023-05-07T06:33:11;19.85;;;11.45;;
43580;SDS011;29175;51.030;4.606;2023-05-07T06:35:36;24.08;;;11.90;;
43580;SDS011;29175;51.030;4.606;2023-05-07T06:38:02;25.88;;;12.05;;
43580;SDS011;29175;51.030;4.606;2023-05-07T06:40:28;22.67;;;10.60;;
43580;SDS011;29175;51.030;4.606;2023-05-07T06:42:54;28.00;;;11.85;;
43580;SDS011;29175;51.030;4.606;2023-05-07T06:45:20;25.05;;;12.15;;
43580;SDS011;29175;51.030;4.606;2023-05-07T06:47:45;27.05;;;13.02;;
43580;SDS011;29175;51.030;4.606;2023-05-07T06:50:11;24.70;;;11.82;;
43580;SDS011;29175;51.030;4.606;2023-05-07T06:52:37;22.85;;;12.27;;
43580;SDS011;29175;51.030;4.606;2023-05-07T06:55:03;27.45;;;13.85;;
43580;SDS011;29175;51.030;4.606;2023-05-07T06:57:30;23.08;;;12.70;;
43580;SDS011;29175;51.030;4.606;2023-05-07T06:59:55;25.90;;;11.95;;
43580;SDS011;29175;51.030;4.606;2023-05-07T07:02:21;28.67;;;14.10;;
43580;SDS011;29175;51.030;4.606;2023-05-07T07:04:47;23.10;;;11.73;;
43580;SDS011;29175;51.030;4.606;2023-05-07T07:07:13;27.27;;;12.27;;
43580;SDS011;29175;51.030;4.606;2023-05-07T07:09:39;25.00;;;13.07;;
43580;SDS011;29175;51.030;4.606;2023-05-07T07:12:05;26.40;;;11.48;;
43580;SDS011;29175;51.030;4.606;2023-05-07T07:14:31;23.80;;;11.82;;
43580;SDS011;29175;51.030;4.606;2023-05-07T07:16:56;26.10;;;13.18;;
43580;SDS011;29175;51.030;4.606;2023-05-07T07:19:22;22.13;;;12.30;;
43580;SDS011;29175;51.030;4.606;2023-05-07T07:21:48;27.20;;;12.40;;
43580;SDS011;29175;51.030;4.606;2023-05-07T07:24:14;23.73;;;10.82;;
43580;SDS011;29175;51.030;4.606;2023-05-07T07:26:46;22.00;;;11.00;;
43580;SDS011;29175;51.030;4.606;2023-05-07T07:29:13;25.33;;;10.45;;
43580;SDS011;29175;51.030;4.606;2023-05-07T07:31:39;26.20;;;11.00;;
43580;SDS011;29175;51.030;4.606;2023-05-07T07:34:05;25.17;;;11.38;;
43580;SDS011;29175;51.030;4.606;2023-05-07T07:36:31;21.90;;;9.40;;
43580;SDS011;29175;51.030;4.606;2023-05-07T07:38:56;19.85;;;9.43;;
43580;SDS011;29175;51.030;4.606;2023-05-07T07:41:22;19.00;;;9.18;;
43580;SDS011;29175;51.030;4.606;2023-05-07T07:43:48;18.73;;;8.93;;
43580;SDS011;29175;51.030;4.606;2023-05-07T07:46:14;18.42;;;7.78;;
43580;SDS011;29175;51.030;4.606;2023-05-07T07:48:40;20.20;;;8.15;;
43580;SDS011;29175;51.030;4.606;2023-05-07T07:51:05;18.70;;;7.80;;
43580;SDS011;29175;51.030;4.606;2023-05-07T07:53:31;17.98;;;7.65;;
43580;SDS011;29175;51.030;4.606;2023-05-07T07:55:57;25.70;;;7.53;;
43580;SDS011;29175;51.030;4.606;2023-05-07T07:58:23;20.17;;;7.75;;
43580;SDS011;29175;51.030;4.606;2023-05-07T08:00:49;17.67;;;7.40;;
43580;SDS011;29175;51.030;4.606;2023-05-07T08:03:16;23.88;;;7.85;;
43580;SDS011;29175;51.030;4.606;2023-05-07T08:05:42;24.33;;;8.13;;
43580;SDS011;29175;51.030;4.606;2023-05-07T08:08:08;23.60;;;8.02;;
43580;SDS011;29175;51.030;4.606;2023-05-07T08:10:34;16.30;;;6.80;;
43580;SDS011;29175;51.030;4.606;2023-05-07T08:13:03;17.60;;;6.97;;
43580;SDS011;29175;51.030;4.606;2023-05-07T08:15:29;19.10;;;7.20;;
43580;SDS011;29175;51.030;4.606;2023-05-07T08:17:55;18.00;;;7.18;;
43580;SDS011;29175;51.030;4.606;2023-05-07T08:20:22;16.27;;;7.15;;
43580;SDS011;29175;51.030;4.606;2023-05-07T08:22:48;17.55;;;7.40;;
43580;SDS011;29175;51.030;4.606;2023-05-07T08:25:14;20.10;;;7.00;;
43580;SDS011;29175;51.030;4.606;2023-05-07T08:27:40;15.70;;;6.90;;
43580;SDS011;29175;51.030;4.606;2023-05-07T08:30:06;16.50;;;7.13;;
43580;SDS011;29175;51.030;4.606;2023-05-07T08:32:32;15.68;;;7.00;;
43580;SDS011;29175;51.030;4.606;2023-05-07T08:34:58;18.02;;;7.75;;
43580;SDS011;29175;51.030;4.606;2023-05-07T08:37:24;20.23;;;8.32;;
43580;SDS011;29175;51.030;4.606;2023-05-07T08:39:49;16.27;;;8.07;;
43580;SDS011;29175;51.030;4.606;2023-05-07T08:42:16;22.90;;;8.68;;
43580;SDS011;29175;51.030;4.606;2023-05-07T08:44:42;18.92;;;9.15;;
43580;SDS011;29175;51.030;4.606;2023-05-07T08:47:13;14.55;;;7.70;;
43580;SDS011;29175;51.030;4.606;2023-05-07T08:49:39;21.88;;;8.90;;
43580;SDS011;29175;51.030;4.606;2023-05-07T08:52:05;20.42;;;9.10;;
43580;SDS011;29175;51.030;4.606;2023-05-07T08:54:31;21.85;;;9.70;;
43580;SDS011;29175;51.030;4.606;2023-05-07T08:56:58;23.05;;;10.30;;
43580;SDS011;29175;51.030;4.606;2023-05-07T08:59:24;23.05;;;9.80;;
43580;SDS011;29175;51.030;4.606;2023-05-07T09:01:50;28.23;;;9.80;;
43580;SDS011;29175;51.030;4.606;2023-05-07T09:04:16;23.65;;;8.68;;
43580;SDS011;29175;51.030;4.606;2023-05-07T09:06:42;25.48;;;9.05;;
43580;SDS011;29175;51.030;4.606;2023-05-07T09:09:08;23.98;;;8.85;;
43580;SDS011;29175;51.030;4.606;2023-05-07T09:11:33;18.77;;;7.88;;
43580;SDS011;29175;51.030;4.606;2023-05-07T09:13:59;15.90;;;6.60;;
43580;SDS011;29175;51.030;4.606;2023-05-07T09:16:28;13.40;;;6.65;;
43580;SDS011;29175;51.030;4.606;2023-05-07T09:18:56;14.20;;;6.43;;
43580;SDS011;29175;51.030;4.606;2023-05-07T09:21:23;17.20;;;6.93;;
43580;SDS011;29175;51.030;4.606;2023-05-07T09:23:53;15.05;;;5.97;;
43580;SDS011;29175;51.030;4.606;2023-05-07T09:26:23;17.50;;;6.68;;
43580;SDS011;29175;51.030;4.606;2023-05-07T09:31:15;14.80;;;6.50;;
43580;SDS011;29175;51.030;4.606;2023-05-07T09:33:41;26.75;;;6.97;;
43580;SDS011;29175;51.030;4.606;2023-05-07T09:36:07;18.38;;;6.50;;
43580;SDS011;29175;51.030;4.606;2023-05-07T09:38:35;12.65;;;6.15;;
43580;SDS011;29175;51.030;4.606;2023-05-07T09:41:03;15.00;;;6.57;;
43580;SDS011;29175;51.030;4.606;2023-05-07T09:43:33;15.00;;;6.32;;
43580;SDS011;29175;51.030;4.606;2023-05-07T09:46:02;19.30;;;7.00;;
43580;SDS011;29175;51.030;4.606;2023-05-07T09:48:30;17.23;;;7.03;;
43580;SDS011;29175;51.030;4.606;2023-05-07T09:51:02;16.38;;;7.30;;
43580;SDS011;29175;51.030;4.606;2023-05-07T09:53:30;15.63;;;6.93;;
43580;SDS011;29175;51.030;4.606;2023-05-07T09:55:56;21.92;;;8.60;;
43580;SDS011;29175;51.030;4.606;2023-05-07T09:58:23;20.00;;;8.10;;
43580;SDS011;29175;51.030;4.606;2023-05-07T10:00:51;23.20;;;8.60;;
43580;SDS011;29175;51.030;4.606;2023-05-07T10:03:17;14.90;;;7.75;;
43580;SDS011;29175;51.030;4.606;2023-05-07T10:05:45;18.95;;;7.88;;
43580;SDS011;29175;51.030;4.606;2023-05-07T10:08:12;17.70;;;8.57;;
43580;SDS011;29175;51.030;4.606;2023-05-07T10:10:41;16.80;;;7.40;;
43580;SDS011;29175;51.030;4.606;2023-05-07T10:13:08;14.50;;;7.90;;
43580;SDS011;29175;51.030;4.606;2023-05-07T10:15:36;20.58;;;7.90;;
43580;SDS011;29175;51.030;4.606;2023-05-07T10:18:03;21.45;;;7.90;;
43580;SDS011;29175;51.030;4.606;2023-05-07T10:20:30;15.18;;;7.25;;
43580;SDS011;29175;51.030;4.606;2023-05-07T10:22:58;22.65;;;7.70;;
43580;SDS011;29175;51.030;4.606;2023-05-07T10:25:30;17.48;;;6.85;;
43580;SDS011;29175;51.030;4.606;2023-05-07T10:28:00;16.40;;;7.10;;
43580;SDS011;29175;51.030;4.606;2023-05-07T10:33:15;18.45;;;7.75;;
43580;SDS011;29175;51.030;4.606;2023-05-07T10:35:45;13.27;;;6.03;;
43580;SDS011;29175;51.030;4.606;2023-05-07T10:38:13;22.10;;;6.28;;
43580;SDS011;29175;51.030;4.606;2023-05-07T10:40:39;9.77;;;5.13;;
43580;SDS011;29175;51.030;4.606;2023-05-07T10:43:05;12.90;;;5.32;;
43580;SDS011;29175;51.030;4.606;2023-05-07T10:45:31;20.13;;;5.78;;
43580;SDS011;29175;51.030;4.606;2023-05-07T10:48:07;11.18;;;5.18;;
43580;SDS011;29175;51.030;4.606;2023-05-07T10:50:38;11.05;;;4.90;;
43580;SDS011;29175;51.030;4.606;2023-05-07T10:58:44;13.43;;;5.90;;
43580;SDS011;29175;51.030;4.606;2023-05-07T11:01:10;13.65;;;5.45;;
43580;SDS011;29175;51.030;4.606;2023-05-07T11:04:12;10.55;;;5.32;;
43580;SDS011;29175;51.030;4.606;2023-05-07T11:06:40;17.45;;;6.70;;
43580;SDS011;29175;51.030;4.606;2023-05-07T11:09:06;16.58;;;6.65;;
43580;SDS011;29175;51.030;4.606;2023-05-07T11:11:45;14.25;;;6.68;;
43580;SDS011;29175;51.030;4.606;2023-05-07T11:17:07;13.57;;;5.95;;
43580;SDS011;29175;51.030;4.606;2023-05-07T11:25:01;11.57;;;4.53;;
43580;SDS011;29175;51.030;4.606;2023-05-07T11:27:28;12.00;;;4.82;;
43580;SDS011;29175;51.030;4.606;2023-05-07T11:29:55;13.35;;;5.68;;
43580;SDS011;29175;51.030;4.606;2023-05-07T11:32:24;12.95;;;5.40;;
43580;SDS011;29175;51.030;4.606;2023-05-07T11:34:52;12.23;;;5.50;;
43580;SDS011;29175;51.030;4.606;2023-05-07T11:37:19;14.65;;;4.85;;
43580;SDS011;29175;51.030;4.606;2023-05-07T11:39:46;13.35;;;5.30;;
43580;SDS011;29175;51.030;4.606;2023-05-07T11:45:11;14.93;;;5.80;;
43580;SDS011;29175;51.030;4.606;2023-05-07T11:47:36;11.20;;;5.03;;
43580;SDS011;29175;51.030;4.606;2023-05-07T11:50:03;18.55;;;5.32;;
43580;SDS011;29175;51.030;4.606;2023-05-07T11:52:31;15.52;;;5.00;;
43580;SDS011;29175;51.030;4.606;2023-05-07T11:54:58;12.88;;;4.82;;
43580;SDS011;29175;51.030;4.606;2023-05-07T11:57:25;11.02;;;4.68;;
43580;SDS011;29175;51.030;4.606;2023-05-07T11:59:52;13.48;;;5.22;;
43580;SDS011;29175;51.030;4.606;2023-05-07T12:02:22;16.67;;;5.38;;
43580;SDS011;29175;51.030;4.606;2023-05-07T12:04:50;13.90;;;5.43;;
43580;SDS011;29175;51.030;4.606;2023-05-07T12:07:16;12.20;;;5.63;;
43580;SDS011;29175;51.030;4.606;2023-05-07T12:09:43;11.32;;;4.70;;
43580;SDS011;29175;51.030;4.606;2023-05-07T12:12:10;16.17;;;5.57;;
43580;SDS011;29175;51.030;4.606;2023-05-07T12:14:40;13.07;;;5.25;;
43580;SDS011;29175;51.030;4.606;2023-05-07T12:19:34;13.70;;;4.63;;
43580;SDS011;29175;51.030;4.606;2023-05-07T12:22:01;11.23;;;5.40;;
43580;SDS011;29175;51.030;4.606;2023-05-07T12:24:28;12.80;;;5.15;;
43580;SDS011;29175;51.030;4.606;2023-05-07T12:26:54;18.92;;;4.80;;
43580;SDS011;29175;51.030;4.606;2023-05-07T12:29:23;13.80;;;4.78;;
43580;SDS011;29175;51.030;4.606;2023-05-07T12:31:49;10.05;;;3.13;;
43580;SDS011;29175;51.030;4.606;2023-05-07T12:34:15;8.65;;;3.45;;
43580;SDS011;29175;51.030;4.606;2023-05-07T12:36:41;16.35;;;4.32;;
43580;SDS011;29175;51.030;4.606;2023-05-07T12:39:07;16.23;;;3.95;;
43580;SDS011;29175;51.030;4.606;2023-05-07T12:41:53;12.05;;;4.05;;
43580;SDS011;29175;51.030;4.606;2023-05-07T12:44:23;10.13;;;3.33;;
43580;SDS011;29175;51.030;4.606;2023-05-07T12:46:50;9.63;;;3.03;;
43580;SDS011;29175;51.030;4.606;2023-05-07T12:49:16;9.65;;;3.28;;
43580;SDS011;29175;51.030;4.606;2023-05-07T12:51:49;8.77;;;3.63;;
43580;SDS011;29175;51.030;4.606;2023-05-07T12:54:37;9.75;;;3.20;;
43580;SDS011;29175;51.030;4.606;2023-05-07T12:57:03;10.50;;;3.35;;
43580;SDS011;29175;51.030;4.606;2023-05-07T12:59:32;8.38;;;3.70;;
43580;SDS011;29175;51.030;4.606;2023-05-07T13:02:07;11.65;;;3.17;;
43580;SDS011;29175;51.030;4.606;2023-05-07T13:04:34;11.20;;;2.97;;
43580;SDS011;29175;51.030;4.606;2023-05-07T13:07:00;7.60;;;3.28;;
43580;SDS011;29175;51.030;4.606;2023-05-07T13:09:27;5.00;;;2.78;;
43580;SDS011;29175;51.030;4.606;2023-05-07T13:11:54;8.02;;;3.35;;
43580;SDS011;29175;51.030;4.606;2023-05-07T13:14:20;9.50;;;3.33;;
43580;SDS011;29175;51.030;4.606;2023-05-07T13:16:46;5.50;;;2.75;;
43580;SDS011;29175;51.030;4.606;2023-05-07T13:19:12;7.97;;;3.17;;
43580;SDS011;29175;51.030;4.606;2023-05-07T13:21:38;5.57;;;3.00;;
43580;SDS011;29175;51.030;4.606;2023-05-07T13:24:04;5.32;;;2.70;;
43580;SDS011;29175;51.030;4.606;2023-05-07T13:26:30;9.88;;;3.80;;
43580;SDS011;29175;51.030;4.606;2023-05-07T13:28:57;6.18;;;2.42;;
43580;SDS011;29175;51.030;4.606;2023-05-07T13:31:22;6.43;;;2.97;;
43580;SDS011;29175;51.030;4.606;2023-05-07T13:33:49;9.98;;;2.50;;
43580;SDS011;29175;51.030;4.606;2023-05-07T13:36:15;10.43;;;2.65;;
43580;SDS011;29175;51.030;4.606;2023-05-07T13:38:41;7.22;;;2.63;;
43580;SDS011;29175;51.030;4.606;2023-05-07T13:41:06;7.55;;;2.47;;
43580;SDS011;29175;51.030;4.606;2023-05-07T13:43:32;7.28;;;3.10;;
43580;SDS011;29175;51.030;4.606;2023-05-07T13:45:58;8.25;;;3.03;;
43580;SDS011;29175;51.030;4.606;2023-05-07T13:48:25;8.13;;;2.80;;
43580;SDS011;29175;51.030;4.606;2023-05-07T13:50:51;9.23;;;2.92;;
43580;SDS011;29175;51.030;4.606;2023-05-07T13:53:17;6.38;;;3.10;;
43580;SDS011;29175;51.030;4.606;2023-05-07T13:55:43;9.57;;;3.15;;
43580;SDS011;29175;51.030;4.606;2023-05-07T13:58:10;10.00;;;2.92;;
43580;SDS011;29175;51.030;4.606;2023-05-07T14:00:35;7.90;;;3.00;;
43580;SDS011;29175;51.030;4.606;2023-05-07T14:03:02;5.05;;;2.72;;
43580;SDS011;29175;51.030;4.606;2023-05-07T14:05:29;10.40;;;3.00;;
43580;SDS011;29175;51.030;4.606;2023-05-07T14:07:55;7.63;;;2.70;;
43580;SDS011;29175;51.030;4.606;2023-05-07T14:10:22;10.73;;;3.13;;
43580;SDS011;29175;51.030;4.606;2023-05-07T14:12:48;5.68;;;2.83;;
43580;SDS011;29175;51.030;4.606;2023-05-07T14:15:14;7.78;;;3.03;;
43580;SDS011;29175;51.030;4.606;2023-05-07T14:17:41;12.55;;;3.00;;
43580;SDS011;29175;51.030;4.606;2023-05-07T14:20:10;15.13;;;3.58;;
43580;SDS011;29175;51.030;4.606;2023-05-07T14:22:37;6.68;;;2.70;;
43580;SDS011;29175;51.030;4.606;2023-05-07T14:25:03;9.25;;;2.90;;
43580;SDS011;29175;51.030;4.606;2023-05-07T14:27:29;11.48;;;3.08;;
43580;SDS011;29175;51.030;4.606;2023-05-07T14:29:55;6.13;;;2.97;;
43580;SDS011;29175;51.030;4.606;2023-05-07T14:32:21;8.07;;;2.85;;
43580;SDS011;29175;51.030;4.606;2023-05-07T14:34:47;8.93;;;2.85;;
43580;SDS011;29175;51.030;4.606;2023-05-07T14:37:13;8.10;;;2.92;;
43580;SDS011;29175;51.030;4.606;2023-05-07T14:39:39;9.70;;;2.70;;
43580;SDS011;29175;51.030;4.606;2023-05-07T14:42:05;7.43;;;2.50;;
43580;SDS011;29175;51.030;4.606;2023-05-07T14:44:33;9.05;;;3.05;;
43580;SDS011;29175;51.030;4.606;2023-05-07T14:47:02;8.93;;;2.70;;
43580;SDS011;29175;51.030;4.606;2023-05-07T14:49:28;7.30;;;3.58;;
43580;SDS011;29175;51.030;4.606;2023-05-07T14:51:56;7.00;;;3.65;;
43580;SDS011;29175;51.030;4.606;2023-05-07T14:54:23;8.70;;;3.67;;
43580;SDS011;29175;51.030;4.606;2023-05-07T14:56:49;10.10;;;4.10;;